Time;durP1;ratioP1;P1;durP2;ratioP2;P2;SDS_P1;SDS_P2;PMS_P1;PMS_P2;Temp;Humidity;BMP_temperature;BMP_pressure;BME280_temperature;BME280_humidity;BME280_pressure;Samples;Min_cycle;Max_cycle;Signal;HPM_P1;HPM_P2
2023/09/03 00:01:28;;;;;;;27.27;18.77;;;15.60;99.90;;;;;;4924936;29;20035;-78
2023/09/03 00:03:54;;;;;;;23.95;19.02;;;15.50;99.90;;;;;;4906042;28;20377;-79
2023/09/03 00:06:20;;;;;;;26.15;19.50;;;15.50;99.90;;;;;;4919700;29;20126;-78
2023/09/03 00:08:46;;;;;;;30.50;21.13;;;15.50;99.90;;;;;;4898583;28;20110;-77
2023/09/03 00:11:11;;;;;;;27.83;20.83;;;15.40;99.90;;;;;;4932239;28;20050;-78
2023/09/03 00:13:37;;;;;;;27.13;20.48;;;15.40;99.90;;;;;;4919118;28;20035;-78
2023/09/03 00:16:03;;;;;;;29.70;21.83;;;15.50;99.90;;;;;;4941275;28;20042;-79
2023/09/03 00:18:28;;;;;;;27.90;20.98;;;15.40;99.90;;;;;;4937183;28;20084;-79
2023/09/03 00:21:03;;;;;;;30.33;21.52;;;15.40;99.90;;;;;;4931556;28;20062;-79
2023/09/03 00:23:28;;;;;;;24.77;18.35;;;15.40;99.90;;;;;;4912247;28;20075;-78
2023/09/03 00:25:56;;;;;;;22.50;18.00;;;15.30;99.90;;;;;;4913664;28;20062;-78
2023/09/03 00:28:21;;;;;;;21.63;17.65;;;15.30;99.90;;;;;;4930437;28;20419;-78
2023/09/03 00:31:08;;;;;;;22.17;16.63;;;15.30;99.90;;;;;;4923938;28;20023;-78
2023/09/03 00:33:33;;;;;;;25.30;17.52;;;15.20;99.90;;;;;;4913813;28;20035;-78
2023/09/03 00:36:01;;;;;;;13.10;11.00;;;15.20;99.90;;;;;;4913546;28;20365;-78
2023/09/03 00:38:26;;;;;;;18.50;14.45;;;15.20;99.90;;;;;;4917101;28;21046;-78
2023/09/03 00:40:52;;;;;;;9.70;8.35;;;15.10;99.90;;;;;;4934100;28;20118;-78
2023/09/03 00:43:17;;;;;;;20.15;16.58;;;15.20;99.90;;;;;;4918440;28;20027;-78
2023/09/03 00:45:43;;;;;;;32.83;17.25;;;15.00;99.90;;;;;;4948747;28;20022;-78
2023/09/03 00:48:09;;;;;;;26.23;18.38;;;14.90;99.90;;;;;;4934797;28;20479;-78
2023/09/03 00:50:35;;;;;;;25.65;17.95;;;14.80;99.90;;;;;;4919188;28;20039;-79
2023/09/03 00:53:01;;;;;;;21.42;17.00;;;14.60;99.90;;;;;;4919633;28;20034;-79
2023/09/03 00:55:27;;;;;;;26.65;18.90;;;14.50;99.90;;;;;;4936772;28;20034;-79
2023/09/03 00:57:52;;;;;;;25.08;18.13;;;14.60;99.90;;;;;;4927527;28;20431;-79
2023/09/03 01:00:18;;;;;;;29.27;18.60;;;14.60;99.90;;;;;;4914065;28;20019;-79
2023/09/03 01:02:44;;;;;;;28.90;19.38;;;14.80;99.90;;;;;;4934137;28;20031;-79
2023/09/03 01:05:10;;;;;;;14.90;11.75;;;14.90;99.90;;;;;;4899446;28;20043;-78
2023/09/03 01:07:36;;;;;;;37.45;17.35;;;14.90;99.90;;;;;;4929220;28;20122;-78
2023/09/03 01:10:02;;;;;;;26.25;13.13;;;14.80;99.90;;;;;;4918909;28;20487;-79
2023/09/03 01:12:59;;;;;;;113.43;22.27;;;14.90;99.90;;;;;;4919233;28;20039;-78
2023/09/03 01:15:29;;;;;;;122.70;22.55;;;14.90;99.90;;;;;;4938553;28;20037;-78
2023/09/03 01:18:09;;;;;;;363.45;26.23;;;14.90;99.90;;;;;;4949559;28;20633;-79
2023/09/03 01:20:37;;;;;;;123.18;24.58;;;14.80;99.90;;;;;;4922889;28;20407;-79
2023/09/03 01:23:52;;;;;;;41.28;25.17;;;14.70;99.90;;;;;;4914597;28;20039;-79
2023/09/03 01:26:36;;;;;;;33.17;23.05;;;14.50;99.90;;;;;;4928697;28;20035;-78
2023/09/03 01:29:02;;;;;;;37.70;25.05;;;14.30;99.90;;;;;;4926144;28;20058;-79
2023/09/03 01:31:28;;;;;;;42.50;27.08;;;14.40;99.90;;;;;;4914341;28;20062;-78
2023/09/03 01:34:01;;;;;;;40.20;28.45;;;14.40;99.90;;;;;;4913576;28;20031;-79
2023/09/03 01:36:27;;;;;;;34.63;23.15;;;14.50;99.90;;;;;;4928493;28;20051;-79
2023/09/03 01:38:52;;;;;;;33.63;22.73;;;14.60;99.90;;;;;;4911673;29;20110;-79
2023/09/03 01:41:18;;;;;;;39.90;26.80;;;14.60;99.90;;;;;;4926739;28;20036;-78
2023/09/03 01:43:43;;;;;;;15.10;12.50;;;14.60;99.90;;;;;;4913802;28;20046;-79
2023/09/03 01:46:12;;;;;;;29.98;20.58;;;14.60;99.90;;;;;;4902171;28;20559;-78
2023/09/03 01:49:01;;;;;;;27.42;18.80;;;14.50;99.90;;;;;;4926961;28;20439;-78
2023/09/03 01:51:30;;;;;;;22.40;17.42;;;14.50;99.90;;;;;;4944145;28;20043;-79
2023/09/03 01:54:06;;;;;;;22.58;17.23;;;14.40;99.90;;;;;;4963592;28;20035;-79
2023/09/03 01:56:35;;;;;;;25.83;18.17;;;14.30;99.90;;;;;;4934549;28;20035;-79
2023/09/03 01:59:18;;;;;;;26.95;19.13;;;14.30;99.90;;;;;;4951967;28;20066;-79
2023/09/03 02:01:44;;;;;;;31.10;20.17;;;14.30;99.90;;;;;;4939342;28;20070;-78
2023/09/03 02:04:09;;;;;;;33.80;20.15;;;14.40;99.90;;;;;;4954765;28;20569;-78
2023/09/03 02:06:35;;;;;;;36.08;22.15;;;14.30;99.90;;;;;;4933527;28;20360;-77
2023/09/03 02:09:00;;;;;;;17.75;12.93;;;14.30;99.90;;;;;;4928775;28;20511;-78
2023/09/03 02:11:26;;;;;;;26.20;16.73;;;14.40;99.90;;;;;;4950569;28;20023;-78
2023/09/03 02:13:51;;;;;;;14.50;11.65;;;14.40;99.90;;;;;;4948771;28;20123;-78
2023/09/03 02:16:17;;;;;;;27.52;16.95;;;14.40;99.90;;;;;;4929818;28;20039;-78
2023/09/03 02:18:42;;;;;;;75.15;19.50;;;14.30;99.90;;;;;;4949320;28;20058;-78
2023/09/03 02:21:08;;;;;;;31.90;19.90;;;14.20;99.90;;;;;;4952104;28;20034;-78
2023/09/03 02:23:34;;;;;;;26.98;19.20;;;14.20;99.90;;;;;;4931313;28;20705;-78
2023/09/03 02:26:01;;;;;;;30.45;20.20;;;14.10;99.90;;;;;;4948376;28;20041;-78
2023/09/03 02:28:27;;;;;;;33.13;22.75;;;14.10;99.90;;;;;;4935295;28;20452;-78
2023/09/03 02:30:52;;;;;;;35.85;22.77;;;14.10;99.90;;;;;;4946932;28;20094;-79
2023/09/03 02:33:18;;;;;;;36.88;21.75;;;14.00;99.90;;;;;;4946518;28;20042;-78
2023/09/03 02:35:44;;;;;;;36.15;23.88;;;14.00;99.90;;;;;;4933029;28;20478;-78
2023/09/03 02:38:09;;;;;;;33.22;18.88;;;14.00;99.90;;;;;;4928886;28;20074;-79
2023/09/03 02:40:36;;;;;;;16.92;12.45;;;14.10;99.90;;;;;;4933493;28;20041;-79
2023/09/03 02:43:03;;;;;;;132.68;21.98;;;14.10;99.90;;;;;;4932895;28;20478;-78
2023/09/03 02:45:29;;;;;;;44.40;22.75;;;14.10;99.90;;;;;;4930194;28;20087;-78
2023/09/03 02:47:54;;;;;;;42.25;22.73;;;14.00;99.90;;;;;;4915634;28;20570;-79
2023/09/03 02:50:20;;;;;;;34.78;22.38;;;13.90;99.90;;;;;;4932488;28;20376;-79
2023/09/03 02:52:45;;;;;;;33.95;21.45;;;13.60;99.90;;;;;;4942387;28;20035;-79
2023/09/03 02:55:12;;;;;;;27.63;20.45;;;13.50;99.90;;;;;;4925216;28;20094;-78
2023/09/03 02:57:38;;;;;;;32.80;21.65;;;13.40;99.90;;;;;;4934279;28;20040;-79
2023/09/03 03:00:04;;;;;;;32.88;21.92;;;13.40;99.90;;;;;;4933331;28;20511;-78
2023/09/03 03:02:30;;;;;;;16.90;12.05;;;13.50;99.90;;;;;;4943293;28;20054;-79
2023/09/03 03:04:55;;;;;;;20.85;15.15;;;13.70;99.90;;;;;;4926048;28;20466;-78
2023/09/03 03:07:21;;;;;;;15.05;12.77;;;13.80;99.90;;;;;;4928990;28;20039;-78
2023/09/03 03:09:50;;;;;;;21.17;15.35;;;13.80;99.90;;;;;;4944689;28;20051;-78
2023/09/03 03:12:15;;;;;;;16.63;12.60;;;13.80;99.90;;;;;;4930782;28;20031;-78
2023/09/03 03:14:41;;;;;;;13.75;11.23;;;13.80;99.90;;;;;;4916018;28;20450;-78
2023/09/03 03:17:06;;;;;;;15.23;11.32;;;13.70;99.90;;;;;;4930601;28;20536;-78
2023/09/03 03:19:32;;;;;;;13.23;9.45;;;13.80;99.90;;;;;;4949189;28;20511;-78
2023/09/03 03:21:58;;;;;;;101.68;14.05;;;14.00;99.90;;;;;;4929672;28;21008;-79
2023/09/03 03:24:23;;;;;;;22.77;8.63;;;13.80;99.90;;;;;;4934268;28;20170;-78
2023/09/03 03:26:49;;;;;;;205.95;17.25;;;13.70;99.90;;;;;;4932271;28;20034;-78
2023/09/03 03:29:14;;;;;;;12.65;9.98;;;13.60;99.90;;;;;;4937334;28;20083;-79
2023/09/03 03:31:42;;;;;;;11.10;9.18;;;13.50;99.90;;;;;;4919659;29;20035;-78
2023/09/03 03:34:07;;;;;;;13.32;9.45;;;13.60;99.90;;;;;;4938093;28;20039;-78
2023/09/03 03:36:33;;;;;;;14.20;9.63;;;13.60;99.90;;;;;;4924811;28;20263;-80
2023/09/03 03:38:58;;;;;;;12.27;10.52;;;13.50;99.90;;;;;;4916771;28;20039;-78
2023/09/03 03:41:24;;;;;;;19.80;11.65;;;13.60;99.90;;;;;;4962577;28;20883;-78
2023/09/03 03:43:50;;;;;;;18.10;14.45;;;13.70;99.90;;;;;;4917194;28;20050;-77
2023/09/03 03:46:16;;;;;;;19.20;14.25;;;13.70;99.90;;;;;;4934662;28;20039;-78
2023/09/03 03:48:42;;;;;;;17.27;13.88;;;13.60;99.90;;;;;;4912053;28;20562;-78
2023/09/03 03:51:08;;;;;;;24.55;16.15;;;13.60;99.90;;;;;;4915781;28;20174;-78
2023/09/03 03:53:33;;;;;;;11.43;9.23;;;13.50;99.90;;;;;;4947260;28;20138;-78
2023/09/03 03:56:09;;;;;;;36.42;20.20;;;13.50;99.90;;;;;;4935335;28;20435;-78
2023/09/03 03:58:36;;;;;;;33.95;16.88;;;13.50;99.90;;;;;;4932204;28;20740;-78
2023/09/03 04:01:11;;;;;;;83.07;22.13;;;13.50;99.90;;;;;;4934069;28;20040;-78
2023/09/03 04:03:36;;;;;;;125.80;28.33;;;13.40;99.90;;;;;;4913538;28;20038;-78
2023/09/03 04:06:02;;;;;;;137.82;26.63;;;13.40;99.90;;;;;;4951431;28;20039;-78
2023/09/03 04:08:30;;;;;;;180.82;28.08;;;13.50;99.90;;;;;;4948544;28;20046;-78
2023/09/03 04:11:08;;;;;;;31.70;16.45;;;13.50;99.90;;;;;;4920622;28;20023;-78
2023/09/03 04:13:33;;;;;;;118.07;23.63;;;13.50;99.90;;;;;;4919836;28;20035;-78
2023/09/03 04:16:04;;;;;;;48.42;17.98;;;13.50;99.90;;;;;;4952138;28;20047;-78
2023/09/03 04:18:30;;;;;;;224.15;28.60;;;13.60;99.90;;;;;;4947638;28;20122;-78
2023/09/03 04:20:58;;;;;;;258.55;32.88;;;13.60;99.90;;;;;;4934132;28;20125;-78
2023/09/03 04:23:24;;;;;;;272.77;30.63;;;13.50;99.90;;;;;;4934946;28;20046;-79
2023/09/03 04:25:51;;;;;;;320.05;33.78;;;13.40;99.90;;;;;;4933748;28;20093;-78
2023/09/03 04:28:17;;;;;;;271.73;32.60;;;13.40;99.90;;;;;;4932774;28;20038;-78
2023/09/03 04:30:43;;;;;;;239.77;31.38;;;13.40;99.90;;;;;;4954536;28;20026;-78
2023/09/03 04:33:08;;;;;;;254.00;34.40;;;13.30;99.90;;;;;;4936521;28;20070;-79
2023/09/03 04:35:34;;;;;;;367.90;39.08;;;13.30;99.90;;;;;;4918465;28;20063;-78
2023/09/03 04:38:00;;;;;;;301.20;37.75;;;13.20;99.90;;;;;;4934479;28;20122;-79
2023/09/03 04:40:25;;;;;;;320.13;41.00;;;13.30;99.90;;;;;;4936275;28;20240;-78
2023/09/03 04:42:51;;;;;;;362.65;40.88;;;13.30;99.90;;;;;;4949433;28;20083;-78
2023/09/03 04:45:17;;;;;;;414.90;43.13;;;13.40;99.90;;;;;;4948793;28;20031;-79
2023/09/03 04:47:43;;;;;;;303.15;36.55;;;13.30;99.90;;;;;;4935721;28;20034;-78
2023/09/03 04:50:09;;;;;;;356.30;39.17;;;13.30;99.90;;;;;;4935051;28;20102;-78
2023/09/03 04:52:35;;;;;;;225.88;28.75;;;13.40;99.90;;;;;;4934366;28;20039;-79
2023/09/03 04:55:01;;;;;;;64.13;16.63;;;13.40;99.90;;;;;;4932062;28;20078;-78
2023/09/03 04:57:27;;;;;;;300.90;33.30;;;13.50;99.90;;;;;;4934678;28;20043;-79
2023/09/03 04:59:53;;;;;;;394.23;36.35;;;13.50;99.90;;;;;;4950943;28;20105;-79
2023/09/03 05:02:19;;;;;;;334.13;34.90;;;13.50;99.90;;;;;;4916727;28;20452;-78
2023/09/03 05:04:44;;;;;;;276.15;28.00;;;13.50;99.90;;;;;;4948754;28;20558;-78
2023/09/03 05:07:10;;;;;;;402.77;30.58;;;13.50;99.90;;;;;;4919276;28;20047;-78
2023/09/03 05:09:35;;;;;;;355.15;29.25;;;13.50;99.90;;;;;;4913010;28;20071;-78
2023/09/03 05:12:01;;;;;;;527.35;35.25;;;13.50;99.90;;;;;;4914135;28;20035;-78
2023/09/03 05:14:26;;;;;;;223.45;22.77;;;13.60;99.90;;;;;;4930198;28;20043;-78
2023/09/03 05:16:52;;;;;;;11.02;9.23;;;13.50;99.90;;;;;;4933608;28;20038;-78
2023/09/03 05:19:17;;;;;;;37.10;12.65;;;13.60;99.90;;;;;;4930360;28;20073;-79
2023/09/03 05:21:43;;;;;;;177.55;21.40;;;13.60;99.90;;;;;;4927969;28;20110;-78
2023/09/03 05:24:10;;;;;;;13.07;11.75;;;13.70;99.90;;;;;;4931813;28;20118;-78
2023/09/03 05:26:35;;;;;;;408.38;32.72;;;13.70;99.90;;;;;;4946194;28;20039;-77
2023/09/03 05:29:01;;;;;;;211.50;22.52;;;13.80;99.90;;;;;;4916733;28;20521;-78
2023/09/03 05:31:27;;;;;;;260.25;27.05;;;13.80;99.90;;;;;;4928254;28;20053;-78
2023/09/03 05:33:52;;;;;;;266.33;28.80;;;13.80;99.90;;;;;;4933105;28;20031;-79
2023/09/03 05:36:18;;;;;;;80.63;23.02;;;13.80;99.90;;;;;;4949420;28;20027;-78
2023/09/03 05:38:43;;;;;;;73.03;18.85;;;13.80;99.90;;;;;;4932762;28;20372;-78
2023/09/03 05:41:09;;;;;;;85.88;24.77;;;14.00;99.90;;;;;;4935540;28;20062;-78
2023/09/03 05:43:36;;;;;;;49.78;18.27;;;14.10;99.90;;;;;;4912273;28;20058;-78
2023/09/03 05:46:02;;;;;;;97.22;24.02;;;14.20;99.90;;;;;;4915716;28;20135;-78
2023/09/03 05:48:28;;;;;;;346.40;40.30;;;14.20;99.90;;;;;;4924979;28;20153;-77
2023/09/03 05:51:03;;;;;;;105.72;26.77;;;14.20;99.90;;;;;;4927642;29;20109;-78
2023/09/03 05:53:30;;;;;;;425.73;43.67;;;14.20;99.90;;;;;;4921377;28;20038;-78
2023/09/03 05:56:06;;;;;;;21.85;16.08;;;14.20;99.90;;;;;;4935022;28;20407;-78
2023/09/03 05:58:33;;;;;;;747.15;62.63;;;14.30;99.90;;;;;;4945719;28;20022;-78
2023/09/03 06:00:59;;;;;;;170.60;30.00;;;14.30;99.90;;;;;;4947108;28;20035;-77
2023/09/03 06:03:25;;;;;;;570.03;52.50;;;14.40;99.90;;;;;;4926244;28;20047;-78
2023/09/03 06:05:51;;;;;;;270.17;40.15;;;14.50;99.90;;;;;;4934962;28;20514;-78
2023/09/03 06:08:16;;;;;;;744.42;68.43;;;14.60;99.90;;;;;;4944826;28;20028;-78
2023/09/03 06:10:43;;;;;;;56.03;23.83;;;14.60;99.90;;;;;;4949806;28;20507;-78
2023/09/03 06:13:09;;;;;;;63.47;20.73;;;14.70;99.90;;;;;;4926348;28;20148;-78
2023/09/03 06:15:34;;;;;;;35.33;19.15;;;14.80;99.90;;;;;;4924397;28;20074;-79
2023/09/03 06:18:00;;;;;;;145.20;28.48;;;14.80;99.90;;;;;;4924482;28;20041;-77
2023/09/03 06:20:26;;;;;;;79.93;27.45;;;14.90;99.90;;;;;;4930120;28;20054;-78
2023/09/03 06:22:51;;;;;;;50.95;23.85;;;15.00;99.90;;;;;;4950736;28;20031;-78
2023/09/03 06:25:18;;;;;;;108.90;28.33;;;15.00;99.90;;;;;;4934355;28;20058;-77
2023/09/03 06:27:43;;;;;;;25.95;19.30;;;15.10;99.90;;;;;;4932979;28;20450;-78
2023/09/03 06:30:09;;;;;;;326.63;45.17;;;15.20;99.90;;;;;;4948228;28;20102;-78
2023/09/03 06:32:36;;;;;;;51.22;23.20;;;15.30;99.90;;;;;;4930025;28;20050;-78
2023/09/03 06:35:05;;;;;;;24.90;19.00;;;15.40;99.90;;;;;;4947384;28;20058;-77
2023/09/03 06:37:30;;;;;;;125.97;27.35;;;15.40;99.90;;;;;;4946795;28;20581;-78
2023/09/03 06:39:56;;;;;;;229.90;41.88;;;15.50;99.90;;;;;;4934723;28;20027;-77
2023/09/03 06:42:22;;;;;;;460.60;54.88;;;15.60;99.90;;;;;;4917741;28;20043;-78
2023/09/03 06:44:47;;;;;;;251.52;41.38;;;15.60;99.90;;;;;;4931492;28;20047;-78
2023/09/03 06:47:13;;;;;;;563.70;63.22;;;15.70;99.90;;;;;;4932264;28;20033;-78
2023/09/03 06:49:38;;;;;;;284.25;38.85;;;15.80;99.90;;;;;;4946949;28;20027;-78
2023/09/03 06:52:04;;;;;;;1200.35;109.07;;;15.90;99.90;;;;;;4926949;28;20806;-78
2023/09/03 06:54:30;;;;;;;408.52;58.20;;;16.00;99.90;;;;;;4929415;28;20073;-78
2023/09/03 06:56:55;;;;;;;608.22;72.07;;;16.10;99.90;;;;;;4912423;28;20058;-77
2023/09/03 06:59:23;;;;;;;1200.30;115.03;;;16.10;99.90;;;;;;4915971;28;20085;-78
2023/09/03 07:01:50;;;;;;;839.35;91.15;;;16.30;99.90;;;;;;4934205;28;20042;-78
2023/09/03 07:04:15;;;;;;;346.85;56.05;;;16.40;99.90;;;;;;4930044;28;20047;-80
2023/09/03 07:06:41;;;;;;;242.10;49.92;;;16.50;99.90;;;;;;4931005;28;20035;-77
2023/09/03 07:09:06;;;;;;;89.40;32.60;;;16.60;99.90;;;;;;4927566;28;20119;-77
2023/09/03 07:11:32;;;;;;;203.60;54.20;;;16.70;99.90;;;;;;4926787;28;20054;-79
2023/09/03 07:13:58;;;;;;;104.20;42.22;;;16.80;99.90;;;;;;4914894;28;20031;-77
2023/09/03 07:16:23;;;;;;;228.48;55.83;;;16.90;99.90;;;;;;4916768;28;20035;-77
2023/09/03 07:18:49;;;;;;;218.23;53.92;;;17.00;99.90;;;;;;4930772;29;20101;-78
2023/09/03 07:21:14;;;;;;;95.18;45.47;;;17.10;99.90;;;;;;4933580;28;20038;-79
2023/09/03 07:23:40;;;;;;;114.90;49.75;;;17.20;99.90;;;;;;4924408;28;20049;-79
2023/09/03 07:26:07;;;;;;;74.25;39.53;;;17.20;99.90;;;;;;4934090;28;20050;-77
2023/09/03 07:28:32;;;;;;;132.63;46.10;;;17.40;99.90;;;;;;4948217;28;20045;-79
2023/09/03 07:30:58;;;;;;;89.55;47.58;;;17.30;99.90;;;;;;4935758;28;20031;-78
2023/09/03 07:33:24;;;;;;;93.20;46.75;;;17.40;99.90;;;;;;4919885;28;20046;-78
2023/09/03 07:35:50;;;;;;;94.47;43.97;;;17.50;99.90;;;;;;4919755;28;20030;-79
2023/09/03 07:38:15;;;;;;;51.38;34.55;;;17.60;99.90;;;;;;4937478;28;20038;-78
2023/09/03 07:40:41;;;;;;;41.33;27.85;;;17.70;99.90;;;;;;4930794;28;20031;-79
2023/09/03 07:43:06;;;;;;;73.70;40.80;;;17.70;99.90;;;;;;4933258;28;20038;-80
2023/09/03 07:45:32;;;;;;;35.47;26.63;;;17.80;99.90;;;;;;4951446;28;20073;-80
2023/09/03 07:47:57;;;;;;;57.63;35.58;;;17.80;99.90;;;;;;4931332;28;20118;-79
2023/09/03 07:50:23;;;;;;;56.85;39.60;;;17.90;99.90;;;;;;4918383;28;20047;-79
2023/09/03 07:52:48;;;;;;;47.75;32.85;;;18.00;99.90;;;;;;4923927;28;20086;-79
2023/09/03 07:55:15;;;;;;;57.60;36.80;;;18.10;99.90;;;;;;4929561;28;20031;-79
2023/09/03 07:57:40;;;;;;;40.92;28.60;;;18.20;99.90;;;;;;4917752;28;20359;-80
2023/09/03 08:00:07;;;;;;;44.90;31.92;;;18.40;99.90;;;;;;4950410;28;20042;-80
2023/09/03 08:02:32;;;;;;;40.55;29.55;;;18.40;99.90;;;;;;4936113;28;20038;-80
2023/09/03 08:04:58;;;;;;;54.70;40.25;;;18.50;99.90;;;;;;4933604;28;20039;-79
2023/09/03 08:07:24;;;;;;;50.85;36.90;;;18.70;99.90;;;;;;4922597;28;20058;-78
2023/09/03 08:09:50;;;;;;;50.85;38.47;;;18.90;99.90;;;;;;4933474;28;20182;-77
2023/09/03 08:12:16;;;;;;;52.47;38.75;;;19.00;99.90;;;;;;4917949;28;20498;-77
2023/09/03 08:14:43;;;;;;;51.20;37.70;;;19.10;99.90;;;;;;4919602;28;20031;-79
2023/09/03 08:17:09;;;;;;;47.65;37.65;;;19.30;99.90;;;;;;4918522;28;20172;-80
2023/09/03 08:19:35;;;;;;;41.78;33.97;;;19.40;99.90;;;;;;4912141;28;20059;-80
2023/09/03 08:22:00;;;;;;;26.63;20.60;;;19.50;99.90;;;;;;4903073;28;20523;-80
2023/09/03 08:24:27;;;;;;;44.72;35.10;;;19.40;99.90;;;;;;4907171;28;20398;-80
2023/09/03 08:26:52;;;;;;;37.92;29.67;;;19.60;99.90;;;;;;4948542;28;20047;-79
2023/09/03 08:29:18;;;;;;;28.17;23.23;;;19.80;99.90;;;;;;4933232;28;20418;-79
2023/09/03 08:31:44;;;;;;;42.08;32.50;;;20.00;99.90;;;;;;4948736;28;20042;-78
2023/09/03 08:34:10;;;;;;;19.48;14.90;;;20.20;99.90;;;;;;4952489;28;20082;-78
2023/09/03 08:36:35;;;;;;;35.88;27.90;;;20.40;99.90;;;;;;4948835;28;20043;-77
2023/09/03 08:39:02;;;;;;;37.25;32.20;;;20.50;99.90;;;;;;4932028;28;20121;-78
2023/09/03 08:41:27;;;;;;;28.35;23.02;;;20.60;99.90;;;;;;4948409;28;20530;-78
2023/09/03 08:43:56;;;;;;;28.80;24.58;;;20.70;99.90;;;;;;4929784;28;20035;-78
2023/09/03 08:46:23;;;;;;;31.05;25.05;;;20.80;99.90;;;;;;4933964;28;20027;-78
2023/09/03 08:48:49;;;;;;;32.72;27.10;;;20.90;99.90;;;;;;4954286;28;20039;-78
2023/09/03 08:51:14;;;;;;;33.42;26.95;;;21.00;99.90;;;;;;4933968;28;20037;-78
2023/09/03 08:53:40;;;;;;;37.80;29.83;;;21.10;99.90;;;;;;4932282;28;20078;-78
2023/09/03 08:56:05;;;;;;;38.08;30.70;;;21.10;99.90;;;;;;4937180;28;20031;-78
2023/09/03 08:58:32;;;;;;;36.42;29.95;;;21.20;99.90;;;;;;4933590;28;20479;-78
2023/09/03 09:00:58;;;;;;;36.00;29.42;;;21.40;99.90;;;;;;4919574;28;20031;-78
2023/09/03 09:03:24;;;;;;;32.65;27.70;;;21.40;99.90;;;;;;4929863;28;20062;-78
2023/09/03 09:05:50;;;;;;;39.45;30.33;;;21.40;99.90;;;;;;4917507;28;20142;-78
2023/09/03 09:08:16;;;;;;;37.80;29.77;;;21.50;99.90;;;;;;4917370;28;20469;-78
2023/09/03 09:10:47;;;;;;;35.22;28.33;;;21.60;99.90;;;;;;4931636;28;20506;-78
2023/09/03 09:13:13;;;;;;;33.67;28.70;;;21.70;99.90;;;;;;4938271;28;20488;-77
2023/09/03 09:15:43;;;;;;;34.10;28.35;;;21.70;99.90;;;;;;4944950;28;20086;-78
2023/09/03 09:18:09;;;;;;;35.42;27.15;;;21.80;99.90;;;;;;4945950;28;20459;-78
2023/09/03 09:20:37;;;;;;;33.20;26.83;;;21.80;99.90;;;;;;4935181;28;20125;-78
2023/09/03 09:23:02;;;;;;;34.28;26.50;;;21.80;99.90;;;;;;4946723;28;20043;-77
2023/09/03 09:25:28;;;;;;;25.30;21.98;;;21.80;99.90;;;;;;4951207;28;20043;-78
2023/09/03 09:27:55;;;;;;;26.60;21.50;;;21.70;99.90;;;;;;4951340;28;20065;-78
2023/09/03 09:30:22;;;;;;;20.48;18.23;;;21.70;99.90;;;;;;4920647;28;20085;-78
2023/09/03 09:32:47;;;;;;;29.10;25.45;;;21.70;99.90;;;;;;4920462;28;20039;-78
2023/09/03 09:35:23;;;;;;;24.42;19.13;;;21.80;99.90;;;;;;4925401;28;20115;-78
2023/09/03 09:37:49;;;;;;;25.13;22.38;;;21.80;99.90;;;;;;4923883;28;20480;-77
2023/09/03 09:40:15;;;;;;;28.48;24.95;;;22.00;99.90;;;;;;4921424;28;20038;-78
2023/09/03 09:42:55;;;;;;;22.63;19.73;;;22.10;99.90;;;;;;4915474;28;21694;-79
2023/09/03 09:45:21;;;;;;;27.90;23.65;;;22.10;99.90;;;;;;4940371;28;20522;-78
2023/09/03 09:47:46;;;;;;;24.15;21.35;;;22.10;99.90;;;;;;4932127;28;20062;-78
2023/09/03 09:50:12;;;;;;;22.27;19.95;;;22.30;99.90;;;;;;4934695;28;20113;-78
2023/09/03 09:52:37;;;;;;;25.65;21.25;;;22.40;99.90;;;;;;4952574;28;20039;-77
2023/09/03 09:55:04;;;;;;;24.65;19.85;;;22.50;99.90;;;;;;4943447;28;20077;-77
2023/09/03 09:57:29;;;;;;;22.42;19.52;;;22.50;99.90;;;;;;4917562;28;20118;-77
2023/09/03 10:00:04;;;;;;;16.95;13.95;;;22.50;99.90;;;;;;5023155;28;20399;-78
2023/09/03 10:02:30;;;;;;;18.38;16.25;;;22.60;99.90;;;;;;5004575;28;20528;-79
2023/09/03 10:04:56;;;;;;;14.80;11.82;;;22.70;99.90;;;;;;4989385;28;20026;-79
2023/09/03 10:07:22;;;;;;;14.73;12.00;;;22.80;99.90;;;;;;4988974;28;20498;-76
2023/09/03 10:09:48;;;;;;;17.95;16.05;;;22.90;99.90;;;;;;5003512;28;20441;-78
2023/09/03 10:12:13;;;;;;;15.68;13.27;;;23.00;99.90;;;;;;4987354;28;20046;-79
2023/09/03 10:14:39;;;;;;;16.25;13.20;;;23.10;99.90;;;;;;5007055;28;20088;-79
2023/09/03 10:17:08;;;;;;;15.32;13.75;;;23.20;99.90;;;;;;5005719;28;20493;-77
2023/09/03 10:19:40;;;;;;;10.48;7.80;;;23.30;99.90;;;;;;5003268;28;20486;-79
2023/09/03 10:22:06;;;;;;;12.60;9.85;;;23.40;99.90;;;;;;5014198;28;20034;-80
2023/09/03 10:24:32;;;;;;;17.23;14.05;;;23.60;99.90;;;;;;4983823;28;20037;-77
2023/09/03 10:26:59;;;;;;;14.52;11.93;;;23.60;99.90;;;;;;4992065;28;20565;-80
2023/09/03 10:29:25;;;;;;;11.60;10.00;;;23.80;99.90;;;;;;4998465;28;20035;-79
2023/09/03 10:31:51;;;;;;;11.02;9.80;;;23.80;99.90;;;;;;4986423;28;20506;-78
2023/09/03 10:34:16;;;;;;;9.30;8.40;;;23.90;99.90;;;;;;4991040;28;20041;-79
2023/09/03 10:37:01;;;;;;;7.10;6.35;;;24.00;99.90;;;;;;4983377;28;20107;-79
2023/09/03 10:39:27;;;;;;;6.85;6.22;;;24.20;99.90;;;;;;4967763;28;20039;-78
2023/09/03 10:42:19;;;;;;;7.43;5.78;;;24.40;99.90;;;;;;4985944;28;20650;-79
2023/09/03 10:45:06;;;;;;;3.97;2.35;;;24.40;99.90;;;;;;5000157;28;20124;-79
2023/09/03 10:47:32;;;;;;;4.72;3.28;;;24.40;99.90;;;;;;4985760;28;20037;-80
2023/09/03 10:49:57;;;;;;;4.68;4.15;;;24.80;99.90;;;;;;4984471;28;20030;-80
2023/09/03 10:52:26;;;;;;;5.32;4.82;;;25.20;99.90;;;;;;4999596;28;20034;-81
2023/09/03 10:55:20;;;;;;;8.35;7.20;;;25.20;99.90;;;;;;4984359;28;20041;-81
2023/09/03 10:58:16;;;;;;;6.07;5.03;;;25.10;99.90;;;;;;4982636;28;20084;-81
2023/09/03 11:01:01;;;;;;;10.95;9.55;;;26.10;99.90;;;;;;4967633;28;20022;-80
2023/09/03 11:03:27;;;;;;;7.18;6.43;;;26.00;99.90;;;;;;4975794;28;20034;-81
2023/09/03 11:06:14;;;;;;;11.55;8.20;;;25.60;99.90;;;;;;4984458;28;20108;-81
2023/09/03 11:08:39;;;;;;;10.32;7.80;;;25.70;99.90;;;;;;4988909;28;20035;-80
2023/09/03 11:11:05;;;;;;;15.73;10.18;;;25.70;99.90;;;;;;4943875;28;20052;-81
2023/09/03 11:13:31;;;;;;;11.90;8.05;;;25.80;99.90;;;;;;4970553;28;20482;-81
2023/09/03 11:15:56;;;;;;;15.20;10.85;;;25.90;99.90;;;;;;4960665;28;20072;-81
2023/09/03 11:18:22;;;;;;;11.20;9.20;;;26.00;99.90;;;;;;4971895;28;20046;-81
2023/09/03 11:20:50;;;;;;;12.82;8.20;;;26.10;99.90;;;;;;4975378;28;20486;-81
2023/09/03 11:23:15;;;;;;;7.03;5.65;;;26.20;99.90;;;;;;4284585;28;10000228;-82
2023/09/03 11:25:41;;;;;;;8.82;6.63;;;26.30;99.90;;;;;;4971159;28;20443;-79
2023/09/03 11:28:08;;;;;;;9.48;6.50;;;26.30;99.90;;;;;;4967695;28;20047;-80
2023/09/03 11:30:34;;;;;;;7.57;5.82;;;26.30;99.90;;;;;;4959169;28;20072;-79
2023/09/03 11:33:00;;;;;;;7.47;5.80;;;26.30;99.90;;;;;;4985366;28;20027;-79
2023/09/03 11:35:25;;;;;;;6.85;5.88;;;26.30;99.90;;;;;;4953239;28;20031;-79
2023/09/03 11:37:51;;;;;;;6.35;4.85;;;26.20;99.90;;;;;;4967851;28;20049;-80
2023/09/03 11:40:17;;;;;;;4.10;3.70;;;26.30;99.90;;;;;;4968391;28;20042;-79
2023/09/03 11:42:44;;;;;;;5.57;5.00;;;26.40;99.90;;;;;;4971557;28;20058;-79
2023/09/03 11:45:11;;;;;;;7.07;5.03;;;26.60;99.90;;;;;;4969445;28;20075;-80
2023/09/03 11:47:40;;;;;;;6.35;5.75;;;27.50;99.90;;;;;;4966811;28;20027;-80
2023/09/03 11:50:15;;;;;;;7.18;5.65;;;27.30;99.90;;;;;;4951075;28;20031;-80
2023/09/03 11:53:04;;;;;;;9.20;6.35;;;27.10;99.90;;;;;;4966667;28;20034;-80
2023/09/03 11:55:35;;;;;;;10.25;6.32;;;27.20;99.90;;;;;;4994534;28;20046;-80
2023/09/03 11:58:01;;;;;;;7.38;6.68;;;27.30;99.90;;;;;;4967101;28;20037;-80
2023/09/03 12:00:27;;;;;;;8.05;5.28;;;27.40;99.90;;;;;;4968618;28;20038;-80
2023/09/03 12:02:53;;;;;;;9.05;6.63;;;27.70;99.90;;;;;;4953487;28;20030;-80
2023/09/03 12:05:19;;;;;;;7.00;6.28;;;27.80;99.50;;;;;;4970602;28;20046;-80
2023/09/03 12:07:45;;;;;;;11.32;6.22;;;27.80;99.90;;;;;;4951319;28;20483;-80
2023/09/03 12:10:11;;;;;;;6.32;4.88;;;27.90;99.90;;;;;;4969035;28;20550;-79
2023/09/03 12:12:36;;;;;;;7.25;6.00;;;28.00;99.90;;;;;;4972058;28;20027;-79
2023/09/03 12:15:17;;;;;;;6.25;4.97;;;28.10;99.60;;;;;;4971794;28;20062;-80
2023/09/03 12:17:42;;;;;;;3.80;3.42;;;28.10;98.80;;;;;;4971190;28;20023;-80
2023/09/03 12:20:09;;;;;;;7.78;3.90;;;28.10;97.80;;;;;;4972598;28;20023;-79
2023/09/03 12:22:34;;;;;;;5.00;4.25;;;28.10;97.40;;;;;;4953581;28;20383;-80
2023/09/03 12:25:05;;;;;;;6.22;3.83;;;28.10;96.60;;;;;;4971919;28;20034;-80
2023/09/03 12:27:46;;;;;;;4.20;3.33;;;28.10;97.10;;;;;;4974028;28;20045;-80
2023/09/03 12:30:11;;;;;;;4.57;3.70;;;28.10;97.40;;;;;;4970019;28;20048;-79